Time;durP1;ratioP1;P1;durP2;ratioP2;P2;SDS_P1;SDS_P2;PMS_P1;PMS_P2;Temp;Humidity;BMP_temperature;BMP_pressure;BME280_temperature;BME280_humidity;BME280_pressure;Samples;Min_cycle;Max_cycle;Signal;HPM_P1;HPM_P2
2024/03/05 00:01:49;;;;;;;5.78;0.73;;;7.40;99.90;;;;;;5099079;28;20046;-77
2024/03/05 00:04:15;;;;;;;;;;;7.40;99.90;;;;;;5096352;28;20040;-77
2024/03/05 00:06:41;;;;;;;0.50;0.50;;;7.40;99.90;;;;;;5100317;27;19927;-77
2024/03/05 00:09:06;;;;;;;;;;;7.40;99.90;;;;;;5100140;28;20123;-77
2024/03/05 00:11:32;;;;;;;0.63;0.63;;;7.40;99.90;;;;;;5121720;27;19964;-78
2024/03/05 00:13:58;;;;;;;0.90;0.90;;;7.50;99.90;;;;;;5128663;27;20035;-79
2024/03/05 00:16:24;;;;;;;0.68;0.68;;;7.50;99.90;;;;;;5114280;28;20049;-79
2024/03/05 00:18:50;;;;;;;0.98;0.95;;;7.50;99.90;;;;;;5089997;27;20117;-78
2024/03/05 00:21:16;;;;;;;0.88;0.88;;;7.50;99.90;;;;;;5129479;27;20039;-78
2024/03/05 00:23:41;;;;;;;0.43;0.43;;;7.50;99.90;;;;;;5088902;27;20054;-78
2024/03/05 00:26:08;;;;;;;1.50;1.27;;;7.50;99.90;;;;;;5115093;27;20323;-78
2024/03/05 00:28:34;;;;;;;1.23;0.82;;;7.50;99.90;;;;;;5106340;28;20042;-77
2024/03/05 00:31:00;;;;;;;;;;;7.50;99.90;;;;;;5103507;27;20039;-78
2024/03/05 00:33:25;;;;;;;0.50;0.50;;;7.50;99.90;;;;;;5117056;27;19919;-77
2024/03/05 00:35:51;;;;;;;0.50;0.50;;;7.50;99.90;;;;;;5101292;27;20081;-78
2024/03/05 00:38:18;;;;;;;0.50;0.50;;;7.50;99.90;;;;;;5083342;28;20044;-77
2024/03/05 00:40:44;;;;;;;0.40;0.40;;;7.50;99.90;;;;;;5123327;27;20046;-79
2024/03/05 00:43:10;;;;;;;0.43;0.43;;;7.50;99.90;;;;;;5108055;27;20099;-78
2024/03/05 00:45:36;;;;;;;0.30;0.30;;;7.50;99.90;;;;;;5101995;28;20093;-78
2024/03/05 00:48:03;;;;;;;3.30;1.15;;;7.50;99.90;;;;;;5094697;27;20122;-78
2024/03/05 00:50:28;;;;;;;0.70;0.70;;;7.50;99.90;;;;;;5095579;27;20034;-78
2024/03/05 00:52:54;;;;;;;0.60;0.60;;;7.50;99.90;;;;;;5124678;27;20079;-78
2024/03/05 00:55:20;;;;;;;1.55;1.45;;;7.50;99.90;;;;;;5111350;27;20043;-78
2024/03/05 00:57:46;;;;;;;2.65;1.65;;;7.50;99.90;;;;;;5118987;27;20044;-78
2024/03/05 01:00:19;;;;;;;0.63;0.63;;;7.50;99.90;;;;;;5132567;27;20584;-78
2024/03/05 01:02:45;;;;;;;0.30;0.30;;;7.60;99.90;;;;;;5109118;27;20050;-79
2024/03/05 01:05:11;;;;;;;0.40;0.40;;;7.60;99.90;;;;;;5121895;27;20036;-77
2024/03/05 01:07:38;;;;;;;1.02;1.02;;;7.60;99.90;;;;;;5087696;27;20067;-79
2024/03/05 01:10:05;;;;;;;1.20;1.20;;;7.60;99.90;;;;;;5124783;27;20039;-77
2024/03/05 01:12:31;;;;;;;3.13;2.85;;;7.50;99.90;;;;;;5109847;27;20056;-78
2024/03/05 01:14:58;;;;;;;1.88;1.75;;;7.50;99.90;;;;;;5105426;27;20035;-78
2024/03/05 01:17:24;;;;;;;3.47;2.72;;;7.50;99.90;;;;;;5101657;27;20536;-78
2024/03/05 01:19:49;;;;;;;2.70;2.58;;;7.50;99.90;;;;;;5112409;27;20067;-78
2024/03/05 01:22:16;;;;;;;6.80;3.20;;;7.60;99.90;;;;;;5122413;27;20121;-78
2024/03/05 01:24:42;;;;;;;4.55;2.90;;;7.50;99.90;;;;;;5124955;27;20475;-79
2024/03/05 01:27:08;;;;;;;4.85;4.47;;;7.50;99.90;;;;;;5097644;27;20066;-79
2024/03/05 01:29:34;;;;;;;1.02;1.00;;;7.50;99.90;;;;;;5111637;27;20036;-79
2024/03/05 01:32:01;;;;;;;4.38;3.63;;;7.60;99.90;;;;;;5120845;27;20042;-78
2024/03/05 01:34:28;;;;;;;2.17;1.65;;;7.50;99.90;;;;;;5091639;27;20042;-78
2024/03/05 01:36:57;;;;;;;2.53;2.42;;;7.50;99.90;;;;;;5104542;27;20047;-77
2024/03/05 01:39:27;;;;;;;0.93;0.93;;;7.60;99.90;;;;;;5099961;27;20421;-78
2024/03/05 01:41:57;;;;;;;0.65;0.65;;;7.50;99.90;;;;;;5135761;27;20047;-78
2024/03/05 01:44:23;;;;;;;0.73;0.73;;;7.50;99.90;;;;;;5104229;27;20151;-78
2024/03/05 01:46:55;;;;;;;0.88;0.88;;;7.50;99.90;;;;;;5119783;27;20040;-77
2024/03/05 01:49:23;;;;;;;0.65;0.65;;;7.50;99.90;;;;;;5105147;27;20110;-78
2024/03/05 01:51:50;;;;;;;8.30;1.85;;;7.60;99.90;;;;;;5119849;27;20099;-78
2024/03/05 01:54:17;;;;;;;0.93;0.93;;;7.50;99.90;;;;;;5110214;27;20043;-78
2024/03/05 01:56:47;;;;;;;0.73;0.63;;;7.60;99.90;;;;;;5112260;27;20489;-77
2024/03/05 01:59:14;;;;;;;0.60;0.60;;;7.60;99.90;;;;;;5104658;27;20539;-77
2024/03/05 02:01:42;;;;;;;0.45;0.45;;;7.60;99.90;;;;;;5103769;27;20044;-78
2024/03/05 02:04:09;;;;;;;0.40;0.40;;;7.60;99.90;;;;;;5101448;27;20043;-77
2024/03/05 02:06:36;;;;;;;0.47;0.47;;;7.60;99.90;;;;;;5125223;27;20465;-78
2024/03/05 02:09:03;;;;;;;0.50;0.50;;;7.60;99.90;;;;;;5108935;27;20787;-78
2024/03/05 02:11:31;;;;;;;0.57;0.57;;;7.60;99.90;;;;;;5106245;27;20050;-78
2024/03/05 02:13:58;;;;;;;0.40;0.40;;;7.60;99.90;;;;;;5126628;27;20039;-78
2024/03/05 02:16:24;;;;;;;0.43;0.43;;;7.60;99.90;;;;;;5115295;27;20074;-78
2024/03/05 02:18:50;;;;;;;0.50;0.50;;;7.60;99.90;;;;;;5109028;27;20074;-78
2024/03/05 02:21:20;;;;;;;0.50;0.50;;;7.60;99.90;;;;;;5104399;27;20047;-78
2024/03/05 02:23:47;;;;;;;6.65;0.85;;;7.60;99.90;;;;;;5107814;27;20047;-78
2024/03/05 02:26:13;;;;;;;0.47;0.47;;;7.70;99.90;;;;;;5093836;27;20046;-79
2024/03/05 02:28:42;;;;;;;0.40;0.40;;;7.70;99.90;;;;;;5111230;27;20444;-78
2024/03/05 02:31:08;;;;;;;0.90;0.90;;;7.60;99.90;;;;;;5100225;27;20034;-78
2024/03/05 02:33:34;;;;;;;0.45;0.45;;;7.70;99.90;;;;;;5109258;27;20035;-78
2024/03/05 02:36:00;;;;;;;1.00;0.88;;;7.70;99.90;;;;;;5127334;27;20061;-77
2024/03/05 02:38:26;;;;;;;0.45;0.45;;;7.60;99.90;;;;;;5103404;27;20038;-78
2024/03/05 02:40:52;;;;;;;;;;;7.70;99.90;;;;;;5131613;27;20039;-79
2024/03/05 02:43:17;;;;;;;0.40;0.40;;;7.70;99.90;;;;;;5076748;27;20389;-78
2024/03/05 02:45:43;;;;;;;0.40;0.40;;;7.70;99.90;;;;;;5121252;27;20059;-78
2024/03/05 02:48:09;;;;;;;0.50;0.50;;;7.60;99.90;;;;;;5122657;27;20048;-77
2024/03/05 02:50:35;;;;;;;0.50;0.50;;;7.70;99.90;;;;;;5122994;27;20408;-80
2024/03/05 02:53:03;;;;;;;1.00;0.55;;;7.70;99.90;;;;;;5114154;27;20038;-79
2024/03/05 02:55:29;;;;;;;0.30;0.30;;;7.70;99.90;;;;;;5110719;27;20042;-79
2024/03/05 02:57:54;;;;;;;0.57;0.57;;;7.60;99.90;;;;;;5103587;27;20039;-79
2024/03/05 03:00:20;;;;;;;0.28;0.28;;;7.70;99.90;;;;;;5125302;27;20046;-79
2024/03/05 03:02:48;;;;;;;0.40;0.40;;;7.70;99.90;;;;;;5083123;27;20038;-78
2024/03/05 03:05:17;;;;;;;0.60;0.60;;;8.10;99.90;;;;;;5076180;27;20040;-78
2024/03/05 03:07:43;;;;;;;0.82;0.82;;;7.60;99.90;;;;;;5115992;27;20092;-79
2024/03/05 03:10:11;;;;;;;0.60;0.60;;;7.60;99.90;;;;;;5139735;27;20039;-78
2024/03/05 03:12:40;;;;;;;0.47;0.47;;;7.60;99.90;;;;;;5107318;27;20830;-78
2024/03/05 03:15:06;;;;;;;0.50;0.50;;;7.60;99.90;;;;;;5122652;27;20035;-78
2024/03/05 03:17:38;;;;;;;0.60;0.60;;;7.60;99.90;;;;;;5089842;27;20036;-79
2024/03/05 03:20:07;;;;;;;0.55;0.55;;;7.60;99.90;;;;;;5106371;27;20047;-79
2024/03/05 03:22:33;;;;;;;0.73;0.73;;;7.60;99.90;;;;;;5126041;27;20035;-79
2024/03/05 03:24:59;;;;;;;0.45;0.45;;;7.50;99.90;;;;;;5107716;27;20103;-79
2024/03/05 03:27:24;;;;;;;0.50;0.50;;;7.60;99.90;;;;;;5137384;27;20039;-80
2024/03/05 03:29:51;;;;;;;0.47;0.47;;;7.50;99.90;;;;;;5111529;27;20483;-80
2024/03/05 03:32:19;;;;;;;0.47;0.47;;;7.60;99.90;;;;;;5091623;27;20533;-79
2024/03/05 03:34:45;;;;;;;1.42;0.65;;;7.70;99.90;;;;;;5101485;27;20039;-80
2024/03/05 03:37:12;;;;;;;0.60;0.60;;;7.50;99.90;;;;;;5106989;27;20039;-79
2024/03/05 03:39:46;;;;;;;0.57;0.57;;;7.50;99.90;;;;;;5102709;27;20142;-79
2024/03/05 03:42:12;;;;;;;0.43;0.43;;;7.50;99.90;;;;;;5111134;27;20050;-79
2024/03/05 03:44:37;;;;;;;2.05;1.95;;;7.50;99.90;;;;;;5106953;27;20035;-80
2024/03/05 03:47:04;;;;;;;0.70;0.70;;;7.60;99.90;;;;;;5135615;27;20035;-80
2024/03/05 03:49:30;;;;;;;0.30;0.30;;;7.50;99.90;;;;;;5125290;27;20027;-78
2024/03/05 03:51:56;;;;;;;;;;;7.50;99.90;;;;;;5085781;27;20043;-78
2024/03/05 03:54:21;;;;;;;0.50;0.50;;;7.60;99.90;;;;;;5104113;27;19930;-78
2024/03/05 03:56:48;;;;;;;0.30;0.30;;;7.60;99.90;;;;;;5094752;27;20046;-78
2024/03/05 03:59:14;;;;;;;0.88;0.50;;;7.60;99.90;;;;;;5109577;27;20051;-79
2024/03/05 04:01:44;;;;;;;0.50;0.50;;;7.60;99.90;;;;;;5107359;28;20031;-79
2024/03/05 04:04:12;;;;;;;0.38;0.38;;;7.60;99.90;;;;;;5106812;28;20080;-79
2024/03/05 04:06:41;;;;;;;0.30;0.30;;;7.60;99.90;;;;;;5119419;27;20523;-79
2024/03/05 04:09:13;;;;;;;0.50;0.50;;;7.60;99.90;;;;;;5118759;27;20082;-79
2024/03/05 04:11:41;;;;;;;0.50;0.50;;;7.60;99.90;;;;;;5101840;27;20464;-79
2024/03/05 04:14:06;;;;;;;1.30;1.15;;;7.70;99.90;;;;;;5113682;27;20050;-78
2024/03/05 04:16:32;;;;;;;1.48;1.48;;;7.60;99.90;;;;;;5109208;27;20035;-79
2024/03/05 04:18:58;;;;;;;0.40;0.40;;;7.60;99.90;;;;;;5128109;27;20121;-78
2024/03/05 04:21:24;;;;;;;0.40;0.40;;;7.60;99.90;;;;;;5071700;27;20039;-78
2024/03/05 04:23:52;;;;;;;;;;;7.60;99.90;;;;;;5111808;27;20051;-78
2024/03/05 04:26:23;;;;;;;0.77;0.77;;;7.60;99.90;;;;;;5088436;27;19924;-78
2024/03/05 04:28:54;;;;;;;0.57;0.57;;;7.70;99.90;;;;;;5109429;27;20379;-79
2024/03/05 04:31:25;;;;;;;0.40;0.40;;;7.70;99.90;;;;;;5127661;27;20080;-79
2024/03/05 04:33:52;;;;;;;0.75;0.75;;;7.60;99.90;;;;;;5111877;27;20027;-79
2024/03/05 04:36:18;;;;;;;1.20;1.20;;;7.70;99.90;;;;;;5120752;27;20113;-79
2024/03/05 04:38:44;;;;;;;0.40;0.40;;;7.70;99.90;;;;;;5134603;27;20615;-79
2024/03/05 04:41:11;;;;;;;;;;;7.70;99.90;;;;;;5129769;27;20398;-79
2024/03/05 04:43:40;;;;;;;0.40;0.40;;;7.70;99.90;;;;;;5131902;27;19915;-79
2024/03/05 04:46:07;;;;;;;0.32;0.32;;;7.70;99.90;;;;;;5094830;27;20044;-79
2024/03/05 04:48:33;;;;;;;0.70;0.70;;;7.70;99.90;;;;;;5090582;27;20076;-79
2024/03/05 04:50:59;;;;;;;0.45;0.45;;;7.70;99.90;;;;;;5103098;27;20061;-79
2024/03/05 04:53:24;;;;;;;1.23;1.23;;;7.70;99.90;;;;;;5140019;27;20042;-79
2024/03/05 04:55:51;;;;;;;0.55;0.55;;;7.70;99.90;;;;;;5122253;27;20049;-79
2024/03/05 04:58:18;;;;;;;0.50;0.50;;;8.70;99.90;;;;;;5101111;27;20044;-79
2024/03/05 05:00:44;;;;;;;0.65;0.65;;;7.60;99.90;;;;;;5114799;27;20040;-79
2024/03/05 05:03:10;;;;;;;0.40;0.40;;;7.70;99.90;;;;;;5107304;27;20057;-80
2024/03/05 05:05:36;;;;;;;0.50;0.50;;;7.70;99.90;;;;;;5076647;27;20448;-80
2024/03/05 05:08:03;;;;;;;1.23;1.23;;;7.70;99.90;;;;;;5130770;27;20437;-79
2024/03/05 05:10:31;;;;;;;0.40;0.40;;;7.70;99.90;;;;;;5100388;27;20470;-79
2024/03/05 05:12:58;;;;;;;0.30;0.30;;;7.70;99.90;;;;;;5109975;27;20417;-79
2024/03/05 05:15:24;;;;;;;1.08;1.08;;;7.70;99.90;;;;;;5104571;27;20046;-79
2024/03/05 05:17:49;;;;;;;;;;;7.80;99.90;;;;;;5125500;27;20047;-79
2024/03/05 05:20:15;;;;;;;0.63;0.63;;;7.80;99.90;;;;;;5106977;27;20006;-78
2024/03/05 05:22:42;;;;;;;0.60;0.60;;;7.70;99.90;;;;;;5126846;27;20035;-78
2024/03/05 05:25:08;;;;;;;0.40;0.40;;;7.70;99.90;;;;;;5109338;27;20139;-80
2024/03/05 05:27:35;;;;;;;;;;;7.70;99.90;;;;;;5128197;27;20039;-80
2024/03/05 05:30:01;;;;;;;0.50;0.50;;;7.70;99.90;;;;;;5118994;27;19915;-79
2024/03/05 05:32:28;;;;;;;0.40;0.40;;;7.70;99.90;;;;;;5092814;27;20399;-80
2024/03/05 05:34:54;;;;;;;0.60;0.60;;;7.70;99.90;;;;;;5109387;27;20074;-79
2024/03/05 05:37:19;;;;;;;0.40;0.40;;;7.60;99.90;;;;;;5128106;27;20071;-79
2024/03/05 05:39:45;;;;;;;0.45;0.45;;;7.60;99.90;;;;;;5108479;27;20444;-78
2024/03/05 05:42:13;;;;;;;0.40;0.40;;;7.60;99.90;;;;;;5122626;27;20067;-78
2024/03/05 05:44:40;;;;;;;0.40;0.40;;;7.60;99.90;;;;;;5086794;27;20463;-78
2024/03/05 05:47:10;;;;;;;0.50;0.50;;;7.60;99.90;;;;;;5108795;27;20369;-79
2024/03/05 05:49:36;;;;;;;0.40;0.40;;;7.70;99.90;;;;;;5113845;27;20554;-80
2024/03/05 05:52:03;;;;;;;0.30;0.30;;;7.60;99.90;;;;;;5130904;27;20031;-79
2024/03/05 05:54:29;;;;;;;0.40;0.40;;;7.60;99.90;;;;;;5073923;28;20083;-80
2024/03/05 05:56:56;;;;;;;0.57;0.57;;;7.60;99.90;;;;;;5089955;28;20074;-78
2024/03/05 05:59:22;;;;;;;0.47;0.47;;;7.50;99.90;;;;;;5136951;27;20033;-79
2024/03/05 06:01:48;;;;;;;0.85;0.75;;;7.50;99.90;;;;;;5097959;27;20043;-79
2024/03/05 06:04:15;;;;;;;0.70;0.70;;;7.40;99.90;;;;;;5124204;27;20035;-78
2024/03/05 06:06:41;;;;;;;0.65;0.65;;;7.40;99.90;;;;;;5112996;27;20054;-80
2024/03/05 06:09:09;;;;;;;0.52;0.52;;;7.40;99.90;;;;;;5109090;27;20039;-79
2024/03/05 06:11:36;;;;;;;0.50;0.50;;;7.40;99.90;;;;;;5120359;27;20498;-79
2024/03/05 06:14:03;;;;;;;0.40;0.40;;;7.40;99.90;;;;;;5108805;27;20039;-80
2024/03/05 06:16:29;;;;;;;0.95;0.95;;;7.30;99.90;;;;;;5108308;27;20104;-79
2024/03/05 06:18:56;;;;;;;0.50;0.50;;;7.30;99.90;;;;;;5122819;27;20099;-78
2024/03/05 06:21:22;;;;;;;0.50;0.50;;;7.20;99.90;;;;;;5102053;27;20148;-80
2024/03/05 06:23:48;;;;;;;0.60;0.60;;;7.20;99.90;;;;;;5113654;27;20050;-79
2024/03/05 06:26:14;;;;;;;0.40;0.40;;;7.20;99.90;;;;;;5094939;27;20043;-80
2024/03/05 06:28:39;;;;;;;0.50;0.50;;;7.20;99.90;;;;;;5117639;27;20027;-80
2024/03/05 06:31:05;;;;;;;0.82;0.82;;;7.10;99.90;;;;;;5103086;27;20043;-78
2024/03/05 06:33:31;;;;;;;0.50;0.50;;;7.10;99.90;;;;;;5136108;27;20046;-79
2024/03/05 06:35:58;;;;;;;0.50;0.50;;;7.10;99.90;;;;;;5134810;27;20043;-80
2024/03/05 06:38:24;;;;;;;0.45;0.45;;;7.10;99.90;;;;;;5112671;27;20049;-79
2024/03/05 06:40:52;;;;;;;0.50;0.50;;;7.10;99.90;;;;;;5109713;27;20104;-81
2024/03/05 06:43:25;;;;;;;0.43;0.43;;;7.10;99.90;;;;;;5129229;27;20039;-79
2024/03/05 06:45:52;;;;;;;0.50;0.50;;;7.10;99.90;;;;;;5105220;27;20035;-78
2024/03/05 06:48:23;;;;;;;0.45;0.45;;;7.10;99.90;;;;;;5128939;27;20047;-78
2024/03/05 06:50:57;;;;;;;1.63;1.52;;;7.10;99.90;;;;;;5099041;27;20272;-79
2024/03/05 06:58:53;;;;;;;0.65;0.65;;;7.00;99.90;;;;;;5114113;27;20043;-80
2024/03/05 07:01:19;;;;;;;0.40;0.40;;;7.00;99.90;;;;;;5136790;27;20311;-81
2024/03/05 07:03:45;;;;;;;0.47;0.47;;;6.90;99.90;;;;;;5138301;27;20043;-77
2024/03/05 07:06:12;;;;;;;2.25;1.88;;;8.20;99.90;;;;;;5126553;27;20375;-80
2024/03/05 07:08:43;;;;;;;0.40;0.40;;;6.90;99.90;;;;;;5107569;27;20045;-79
2024/03/05 07:11:15;;;;;;;0.50;0.50;;;6.90;99.90;;;;;;5118044;27;20444;-79
2024/03/05 07:13:43;;;;;;;0.77;0.63;;;6.80;99.90;;;;;;5126737;27;20059;-81
2024/03/05 07:16:13;;;;;;;0.70;0.43;;;6.80;99.90;;;;;;5117944;27;20043;-80
2024/03/05 07:18:39;;;;;;;0.47;0.47;;;6.70;99.90;;;;;;5115484;27;20398;-80
2024/03/05 07:21:09;;;;;;;0.40;0.40;;;7.80;99.90;;;;;;5142760;27;20053;-80
2024/03/05 07:23:35;;;;;;;0.60;0.60;;;6.70;99.90;;;;;;5125683;27;20051;-78
2024/03/05 07:26:01;;;;;;;;;;;6.70;99.90;;;;;;5140804;27;20046;-80
2024/03/05 07:28:27;;;;;;;1.00;1.00;;;6.10;99.90;;;;;;5136132;27;19916;-78
2024/03/05 07:30:54;;;;;;;0.70;0.70;;;6.60;99.90;;;;;;5134543;27;20062;-79
2024/03/05 07:33:20;;;;;;;0.50;0.50;;;6.60;99.90;;;;;;5128387;27;20042;-81
2024/03/05 07:35:46;;;;;;;;;;;6.60;99.90;;;;;;5138445;27;20092;-78
2024/03/05 07:38:14;;;;;;;0.50;0.50;;;6.90;99.90;;;;;;5137110;27;19924;-80
2024/03/05 07:40:45;;;;;;;0.45;0.45;;;6.60;99.90;;;;;;5134287;27;20043;-79
2024/03/05 07:43:11;;;;;;;0.50;0.50;;;6.60;99.90;;;;;;5110600;27;20043;-80
2024/03/05 07:45:37;;;;;;;;;;;6.50;99.90;;;;;;5133848;27;20039;-80
2024/03/05 07:48:03;;;;;;;0.40;0.40;;;7.70;99.90;;;;;;5104126;27;19915;-77
2024/03/05 07:50:29;;;;;;;0.65;0.65;;;6.50;99.90;;;;;;5095484;27;20042;-79
2024/03/05 07:52:58;;;;;;;0.65;0.65;;;6.50;99.90;;;;;;5129655;27;20042;-80
2024/03/05 07:55:25;;;;;;;1.02;0.95;;;6.50;99.90;;;;;;5122802;27;20053;-77
2024/03/05 07:57:56;;;;;;;0.98;0.98;;;6.50;99.90;;;;;;5132479;27;20047;-78
2024/03/05 08:00:23;;;;;;;0.50;0.50;;;6.40;99.90;;;;;;5133720;27;20031;-79
2024/03/05 08:02:50;;;;;;;0.77;0.77;;;7.10;99.90;;;;;;5127101;27;20394;-79
2024/03/05 08:05:23;;;;;;;1.48;1.23;;;6.50;99.90;;;;;;5131911;27;20073;-78
2024/03/05 08:07:51;;;;;;;0.50;0.50;;;6.60;99.90;;;;;;5100183;28;20051;-79
2024/03/05 08:10:18;;;;;;;0.50;0.50;;;6.50;99.90;;;;;;5097877;27;20047;-80
2024/03/05 08:12:45;;;;;;;0.30;0.30;;;6.60;99.90;;;;;;5116255;27;20568;-79
2024/03/05 08:15:13;;;;;;;0.70;0.70;;;6.50;99.90;;;;;;5111296;27;20119;-78
2024/03/05 08:17:40;;;;;;;0.50;0.50;;;6.50;99.90;;;;;;5125869;27;20420;-79
2024/03/05 08:20:07;;;;;;;0.43;0.43;;;6.60;99.90;;;;;;5125953;27;20039;-79
2024/03/05 08:22:36;;;;;;;0.43;0.43;;;6.60;99.90;;;;;;5130077;27;20126;-79
2024/03/05 08:25:09;;;;;;;1.10;0.85;;;6.70;99.90;;;;;;5119002;28;20039;-80
2024/03/05 08:27:59;;;;;;;0.40;0.40;;;6.70;99.90;;;;;;5126777;27;20059;-79
2024/03/05 08:30:31;;;;;;;0.50;0.50;;;6.70;99.90;;;;;;5135070;27;20032;-79
2024/03/05 08:32:57;;;;;;;0.40;0.40;;;6.70;99.90;;;;;;5112356;27;20073;-80
2024/03/05 08:35:23;;;;;;;;;;;6.70;99.90;;;;;;5086064;28;20054;-78
2024/03/05 08:37:49;;;;;;;0.70;0.70;;;6.60;99.90;;;;;;5109735;27;20164;-80
2024/03/05 08:40:20;;;;;;;0.40;0.40;;;6.70;99.90;;;;;;5132608;27;20425;-79
2024/03/05 08:42:48;;;;;;;1.02;1.02;;;6.60;99.90;;;;;;5118956;27;20049;-78
2024/03/05 08:45:20;;;;;;;0.70;0.70;;;6.60;99.90;;;;;;5117594;27;20502;-81
2024/03/05 08:47:51;;;;;;;0.55;0.55;;;6.60;99.90;;;;;;5086257;27;20192;-80
2024/03/05 08:50:17;;;;;;;0.50;0.50;;;6.60;99.90;;;;;;5084592;28;20119;-82
2024/03/05 08:52:43;;;;;;;;;;;6.60;99.90;;;;;;5119211;27;20035;-81
2024/03/05 08:55:10;;;;;;;0.63;0.63;;;6.60;99.90;;;;;;5086188;28;19930;-79
2024/03/05 08:57:40;;;;;;;1.33;1.23;;;6.70;99.90;;;;;;5093155;28;20518;-80
2024/03/05 09:00:07;;;;;;;0.50;0.50;;;6.60;99.90;;;;;;5103347;27;20047;-81
2024/03/05 09:02:34;;;;;;;0.60;0.60;;;6.60;99.90;;;;;;5085003;28;20118;-76
2024/03/05 09:05:02;;;;;;;1.17;1.17;;;6.50;99.90;;;;;;5123068;27;20058;-79
2024/03/05 09:07:29;;;;;;;0.73;0.73;;;6.60;99.90;;;;;;5106181;27;20051;-79
2024/03/05 09:09:55;;;;;;;0.68;0.68;;;7.00;99.90;;;;;;5129800;27;20078;-78
2024/03/05 09:12:21;;;;;;;0.85;0.85;;;6.50;99.90;;;;;;5128264;27;20111;-79
2024/03/05 09:14:47;;;;;;;0.70;0.70;;;6.50;99.90;;;;;;5090570;27;20089;-77
2024/03/05 09:17:12;;;;;;;1.08;1.08;;;6.60;99.90;;;;;;5133013;27;20074;-80
2024/03/05 09:19:38;;;;;;;0.68;0.68;;;6.60;99.90;;;;;;5112734;27;20498;-77
2024/03/05 09:22:05;;;;;;;0.85;0.85;;;6.60;99.90;;;;;;5128835;27;20174;-78
2024/03/05 09:24:35;;;;;;;1.55;1.40;;;6.60;99.90;;;;;;5116666;27;20159;-78
2024/03/05 09:27:05;;;;;;;1.20;1.20;;;6.60;99.90;;;;;;5115639;27;20039;-79
2024/03/05 09:29:31;;;;;;;0.88;0.88;;;6.60;99.90;;;;;;5124441;27;20037;-80
2024/03/05 09:31:57;;;;;;;;;;;7.10;99.90;;;;;;5126206;27;20039;-78
2024/03/05 09:34:23;;;;;;;0.40;0.40;;;6.70;99.90;;;;;;5123859;27;19961;-79
2024/03/05 09:36:51;;;;;;;2.58;1.95;;;6.70;99.90;;;;;;5121972;27;20035;-77
2024/03/05 09:39:20;;;;;;;0.50;0.50;;;6.70;99.90;;;;;;5106211;27;20435;-80
2024/03/05 09:41:46;;;;;;;0.75;0.75;;;6.70;99.90;;;;;;5127480;27;20474;-79
2024/03/05 09:44:13;;;;;;;0.40;0.40;;;6.70;99.90;;;;;;5093878;27;20071;-79
2024/03/05 09:46:42;;;;;;;0.50;0.50;;;6.80;99.90;;;;;;5125394;27;20512;-78
2024/03/05 09:49:11;;;;;;;0.60;0.60;;;6.70;99.90;;;;;;5124564;27;20043;-79
2024/03/05 09:51:39;;;;;;;1.63;1.52;;;6.70;99.90;;;;;;5139964;27;20030;-78
2024/03/05 09:54:10;;;;;;;0.95;0.95;;;6.70;99.90;;;;;;5124968;27;20036;-77
2024/03/05 09:56:45;;;;;;;0.63;0.63;;;6.70;99.90;;;;;;5095309;28;20044;-79
2024/03/05 09:59:16;;;;;;;0.55;0.55;;;6.70;99.90;;;;;;5140868;27;20031;-78
2024/03/05 10:01:45;;;;;;;0.77;0.77;;;6.60;99.90;;;;;;5114576;27;20103;-81
2024/03/05 10:04:15;;;;;;;0.70;0.70;;;7.50;99.90;;;;;;5141825;27;20100;-79
2024/03/05 10:06:45;;;;;;;0.70;0.70;;;6.60;99.90;;;;;;5103913;27;20066;-79
2024/03/05 10:09:12;;;;;;;0.47;0.47;;;6.60;99.90;;;;;;5141553;27;20069;-81
2024/03/05 10:11:38;;;;;;;0.40;0.40;;;6.60;99.90;;;;;;5149418;27;20394;-79
2024/03/05 10:14:14;;;;;;;;;;;6.70;99.90;;;;;;5121147;27;20035;-78
2024/03/05 10:16:39;;;;;;;0.80;0.80;;;6.70;99.90;;;;;;5140235;27;19922;-79
2024/03/05 10:19:19;;;;;;;0.60;0.60;;;6.80;99.90;;;;;;5136159;27;20040;-79
2024/03/05 10:21:49;;;;;;;0.20;0.20;;;6.80;99.90;;;;;;5110422;27;20041;-79
2024/03/05 10:24:27;;;;;;;0.60;0.60;;;6.90;99.90;;;;;;5143453;27;20095;-80
2024/03/05 10:26:54;;;;;;;0.68;0.68;;;7.00;99.90;;;;;;5115563;27;20555;-80
2024/03/05 10:29:33;;;;;;;0.50;0.50;;;7.00;99.90;;;;;;5141445;27;20401;-77
2024/03/05 10:32:07;;;;;;;0.65;0.65;;;7.10;99.90;;;;;;5136682;27;20042;-78
2024/03/05 10:34:41;;;;;;;1.25;1.15;;;7.10;99.90;;;;;;5099849;27;20046;-79
2024/03/05 10:37:07;;;;;;;0.40;0.40;;;7.10;99.90;;;;;;5140926;27;20090;-75
2024/03/05 10:39:33;;;;;;;0.60;0.60;;;7.10;99.90;;;;;;5105728;27;20039;-80
2024/03/05 10:42:01;;;;;;;0.57;0.57;;;7.10;99.90;;;;;;5141400;27;20042;-78
2024/03/05 10:44:29;;;;;;;0.50;0.50;;;7.00;99.90;;;;;;5143066;27;20486;-80
2024/03/05 10:46:55;;;;;;;0.50;0.50;;;6.90;99.90;;;;;;5140328;27;20039;-79
2024/03/05 10:49:22;;;;;;;0.40;0.40;;;6.80;99.90;;;;;;5140402;27;20022;-78
2024/03/05 10:51:49;;;;;;;0.80;0.80;;;5.80;99.90;;;;;;5132043;27;20038;-79
2024/03/05 10:54:17;;;;;;;0.60;0.60;;;6.70;99.90;;;;;;5127462;27;20042;-77
2024/03/05 10:56:44;;;;;;;0.47;0.47;;;6.70;99.90;;;;;;5090051;27;20493;-80
2024/03/05 11:01:44;;;;;;;0.50;0.50;;;6.80;99.90;;;;;;5130293;27;20128;-78
2024/03/05 11:04:14;;;;;;;0.60;0.60;;;6.80;99.90;;;;;;5096393;27;20403;-78
2024/03/05 11:06:40;;;;;;;0.50;0.50;;;6.80;99.90;;;;;;5107325;27;20399;-81
2024/03/05 11:09:10;;;;;;;0.57;0.57;;;6.90;99.90;;;;;;5130747;27;20036;-80
2024/03/05 11:11:43;;;;;;;0.43;0.43;;;6.90;99.90;;;;;;5108961;27;20048;-76
2024/03/05 11:14:11;;;;;;;0.80;0.80;;;7.50;99.90;;;;;;5124641;27;20118;-78
2024/03/05 11:16:37;;;;;;;0.30;0.30;;;7.90;99.90;;;;;;5081202;27;20043;-78
2024/03/05 11:19:04;;;;;;;0.32;0.32;;;7.50;99.90;;;;;;5132613;27;20035;-78
2024/03/05 11:21:34;;;;;;;1.67;1.58;;;7.20;99.90;;;;;;5108624;27;20085;-80
2024/03/05 11:24:03;;;;;;;0.57;0.57;;;7.30;99.90;;;;;;5089211;27;20046;-80
2024/03/05 11:26:31;;;;;;;2.30;0.52;;;7.60;99.90;;;;;;5130587;27;20042;-79
2024/03/05 11:29:20;;;;;;;1.10;0.75;;;7.90;99.90;;;;;;5124396;27;20079;-79
2024/03/05 11:31:51;;;;;;;0.40;0.40;;;7.50;99.90;;;;;;5117523;27;20073;-78
2024/03/05 11:34:17;;;;;;;0.40;0.40;;;7.50;99.90;;;;;;5092305;27;20027;-78
2024/03/05 11:36:47;;;;;;;1.98;0.70;;;7.60;99.90;;;;;;5111853;27;20055;-80
2024/03/05 11:39:19;;;;;;;0.45;0.45;;;7.70;99.90;;;;;;5091935;27;20039;-78
2024/03/05 11:41:47;;;;;;;0.50;0.50;;;7.70;99.90;;;;;;5124750;27;20043;-78
2024/03/05 11:44:31;;;;;;;0.47;0.47;;;7.80;99.90;;;;;;5112041;27;20054;-80
2024/03/05 11:46:57;;;;;;;0.38;0.38;;;7.70;99.90;;;;;;5126578;27;20059;-80
2024/03/05 11:49:24;;;;;;;0.60;0.60;;;8.80;99.90;;;;;;5126220;27;20042;-79
2024/03/05 11:51:50;;;;;;;;;;;7.60;99.90;;;;;;5098455;27;20514;-78
2024/03/05 11:54:17;;;;;;;1.88;1.77;;;7.60;99.90;;;;;;5128893;27;19923;-78
2024/03/05 11:56:58;;;;;;;0.70;0.70;;;7.60;99.90;;;;;;5127560;27;20122;-78
2024/03/05 11:59:36;;;;;;;0.65;0.65;;;7.50;99.90;;;;;;5112942;27;20043;-78
2024/03/05 12:02:07;;;;;;;0.40;0.40;;;7.50;99.90;;;;;;5133370;27;20031;-80
2024/03/05 12:04:34;;;;;;;0.60;0.60;;;7.50;99.90;;;;;;5122810;27;20054;-78
2024/03/05 12:07:03;;;;;;;0.95;0.95;;;7.60;99.90;;;;;;5107003;27;20066;-78
2024/03/05 12:09:29;;;;;;;0.50;0.50;;;7.60;99.90;;;;;;5128341;27;20478;-78
2024/03/05 12:12:10;;;;;;;1.38;1.27;;;7.50;99.90;;;;;;5123059;27;20035;-79
2024/03/05 12:14:39;;;;;;;0.40;0.40;;;7.50;99.90;;;;;;5126648;27;20049;-79
2024/03/05 12:17:12;;;;;;;0.80;0.80;;;7.40;99.90;;;;;;5128463;27;20036;-80
2024/03/05 12:19:38;;;;;;;1.20;1.20;;;7.40;99.90;;;;;;5115767;27;20050;-76
2024/03/05 12:22:04;;;;;;;;;;;7.30;99.90;;;;;;5106497;28;20057;-79
2024/03/05 12:24:31;;;;;;;0.40;0.40;;;7.30;99.90;;;;;;5127536;27;19915;-79
2024/03/05 12:26:58;;;;;;;0.30;0.30;;;7.30;99.90;;;;;;5091119;28;20084;-78
2024/03/05 12:29:33;;;;;;;1.88;1.77;;;7.30;99.90;;;;;;5127657;27;20023;-79
2024/03/05 12:32:07;;;;;;;0.40;0.40;;;7.30;99.90;;;;;;5118756;27;20038;-79
2024/03/05 12:34:34;;;;;;;1.73;1.60;;;7.30;99.90;;;;;;5104610;27;20119;-83
2024/03/05 12:37:01;;;;;;;0.38;0.38;;;7.30;99.90;;;;;;5109319;28;20044;-78
2024/03/05 12:39:28;;;;;;;0.63;0.55;;;7.30;99.90;;;;;;5129212;27;20066;-80
2024/03/05 12:42:02;;;;;;;1.48;0.70;;;7.30;99.90;;;;;;5082436;27;20043;-78
2024/03/05 12:44:30;;;;;;;0.60;0.60;;;7.30;99.90;;;;;;5107075;27;20122;-81
2024/03/05 12:47:16;;;;;;;3.13;0.70;;;7.10;99.90;;;;;;5108529;27;20047;-78
2024/03/05 12:49:46;;;;;;;0.47;0.47;;;7.30;99.90;;;;;;5124297;27;20505;-79
2024/03/05 12:52:22;;;;;;;0.73;0.73;;;7.20;99.90;;;;;;5133274;27;20523;-78
2024/03/05 12:55:11;;;;;;;0.50;0.50;;;7.20;99.90;;;;;;5114650;27;20131;-77
2024/03/05 12:57:37;;;;;;;0.90;0.90;;;7.20;99.90;;;;;;5133909;27;20135;-79
2024/03/05 13:00:10;;;;;;;0.40;0.40;;;7.20;99.90;;;;;;5122515;27;20035;-77
2024/03/05 13:02:37;;;;;;;0.63;0.63;;;7.20;99.90;;;;;;5136235;27;20038;-80
2024/03/05 13:05:03;;;;;;;0.77;0.77;;;7.20;99.90;;;;;;5137021;27;20044;-79
2024/03/05 13:07:30;;;;;;;;;;;7.20;99.90;;;;;;5134775;27;20115;-77
2024/03/05 13:09:56;;;;;;;0.40;0.40;;;7.20;99.90;;;;;;5108290;27;19976;-79
2024/03/05 13:12:23;;;;;;;0.50;0.50;;;7.20;99.90;;;;;;5132630;27;20028;-77
2024/03/05 13:14:49;;;;;;;0.30;0.30;;;7.20;99.90;;;;;;5106442;27;20114;-79